Terminal Aerodrome Forecast
Issued by NWS Grand Forks, ND

Home | Current Version | Previous Version | Text Only | Print | Product List | Glossary Off
Versions: 1 2 3 4 5 6 7 8 9 10 11 12 13 14 15 16 17 18 19 20

000
FTUS43 KFGF 281706 AAA
TAFGFK
TAF AMD
KGFK 281706Z 2817/2912 17008KT P6SM VCSH SCT050 BKN150
     FM281800 20010KT P6SM BKN150
     FM281900 22012G18KT P6SM BKN150
     FM282100 32010G17KT P6SM VCTS BKN050CB
     FM282200 32010KT P6SM BKN250
     FM290000 22006KT P6SM SCT250
     FM291100 18003KT 5SM BR SKC=

USA.gov is the U.S. government's official web portal to all federal, state and local government web resources and services.